Terminal Aerodrome Forecast
Issued by NWS

Home | Current Version | Previous Version | Text Only | Print | Product List | Glossary On
Versions: 1 2 3 4 5 6 7 8 9 10 11 12 13 14 15 16 17 18 19 20 21
000
FTUS43 KICT 201722
TAFRSL
TAF
KRSL 201722Z 2018/2118 34017G24KT P6SM BKN025
     FM210100 36009KT P6SM FEW035
     FM211700 05008KT P6SM SCT070=

USA.gov is the U.S. government's official web portal to all federal, state and local government web resources and services.